createdAt,value
2022-11-15T00:01:35.221Z,48.65
2022-11-15T00:04:20.706Z,43.92
2022-11-15T00:07:06.172Z,49.13
2022-11-15T00:09:51.692Z,43.83
2022-11-15T00:12:37.265Z,45.95
2022-11-15T00:15:23.849Z,44.88
2022-11-15T00:18:15.799Z,44.50
2022-11-15T00:21:07.755Z,46.20
2022-11-15T00:23:53.379Z,51.70
2022-11-15T00:26:38.822Z,33.90
2022-11-15T00:29:24.427Z,42.42
2022-11-15T00:32:09.915Z,43.20
2022-11-15T00:34:55.631Z,30.80
2022-11-15T00:37:41.113Z,37.72
2022-11-15T00:40:26.884Z,34.30
2022-11-15T00:43:12.432Z,48.83
2022-11-15T00:45:58.219Z,42.63
2022-11-15T00:48:43.570Z,34.03
2022-11-15T00:51:29.849Z,47.00
2022-11-15T00:54:15.260Z,39.42
2022-11-15T00:57:00.795Z,35.92
2022-11-15T00:59:46.293Z,32.67
2022-11-15T01:02:31.718Z,38.85
2022-11-15T01:05:17.560Z,38.58
2022-11-15T01:08:03.092Z,41.70
2022-11-15T01:10:48.569Z,37.55
2022-11-15T01:13:35.940Z,53.85
2022-11-15T01:16:21.449Z,42.13
2022-11-15T01:19:07.326Z,43.53
2022-11-15T01:21:53.156Z,49.33
2022-11-15T01:24:38.927Z,46.05
2022-11-15T01:27:24.828Z,42.95
2022-11-15T01:30:10.509Z,38.28
2022-11-15T01:32:56.281Z,51.13
2022-11-15T01:35:41.717Z,35.75
2022-11-15T01:38:27.385Z,32.42
2022-11-15T01:41:25.306Z,39.95
2022-11-15T01:44:49.006Z,35.80
2022-11-15T01:47:37.568Z,39.13
2022-11-15T01:50:29.819Z,33.05
2022-11-15T01:56:05.492Z,48.05
2022-11-15T01:58:52.701Z,52.25
2022-11-15T02:01:39.510Z,55.95
2022-11-15T02:04:30.572Z,48.67
2022-11-15T02:07:19.507Z,53.08
2022-11-15T02:10:11.395Z,43.00
2022-11-15T02:16:02.961Z,50.55
2022-11-15T02:19:24.550Z,50.45
2022-11-15T02:22:58.149Z,46.20
2022-11-15T02:26:13.105Z,54.15
2022-11-15T02:29:10.070Z,51.80
2022-11-15T02:32:10.645Z,46.15
2022-11-15T02:35:26.703Z,60.92
2022-11-15T02:38:44.018Z,68.13
2022-11-15T02:41:41.173Z,70.53
2022-11-15T02:44:33.973Z,74.07
2022-11-15T02:47:22.376Z,56.10
2022-11-15T02:50:14.042Z,59.85
2022-11-15T02:52:59.753Z,53.53
2022-11-15T02:55:49.205Z,59.38
2022-11-15T02:59:21.203Z,70.15
2022-11-15T03:06:17.298Z,57.47
2022-11-15T03:09:30.131Z,67.57
2022-11-15T03:12:34.986Z,45.38
2022-11-15T03:15:26.700Z,38.78
2022-11-15T03:18:22.607Z,41.72
2022-11-15T03:21:13.202Z,33.70
2022-11-15T03:24:02.634Z,40.95
2022-11-15T03:26:50.621Z,30.42
2022-11-15T03:29:42.945Z,33.53
2022-11-15T03:32:36.053Z,35.17
2022-11-15T03:35:28.202Z,40.33
2022-11-15T03:38:26.041Z,35.05
2022-11-15T03:41:25.209Z,34.72
2022-11-15T03:45:12.295Z,43.45
2022-11-15T03:48:10.559Z,37.30
2022-11-15T03:50:56.763Z,40.65
2022-11-15T03:53:42.619Z,57.65
2022-11-15T03:56:28.150Z,58.70
2022-11-15T03:59:13.609Z,78.53
2022-11-15T04:01:59.280Z,65.78
2022-11-15T04:04:44.551Z,68.55
2022-11-15T04:07:30.531Z,80.90
2022-11-15T04:10:16.972Z,83.57
2022-11-15T04:13:03.802Z,83.85
2022-11-15T04:15:49.451Z,80.95
2022-11-15T04:18:35.398Z,80.65
2022-11-15T04:21:39.628Z,84.13
2022-11-15T04:24:25.236Z,60.42
2022-11-15T04:27:11.365Z,64.55
2022-11-15T04:29:58.837Z,67.75
2022-11-15T04:32:44.731Z,75.97
2022-11-15T04:35:30.170Z,73.10
2022-11-15T04:38:15.988Z,90.47
2022-11-15T04:41:02.127Z,71.15
2022-11-15T04:43:48.049Z,95.65
2022-11-15T04:46:33.844Z,92.72
2022-11-15T04:49:19.288Z,90.80
2022-11-15T04:52:05.686Z,98.03
2022-11-15T04:54:51.267Z,106.97
2022-11-15T04:57:37.056Z,102.70
2022-11-15T05:00:22.535Z,80.88
2022-11-15T05:03:26.771Z,88.60
2022-11-15T05:06:12.426Z,101.43
2022-11-15T05:08:58.684Z,97.82
2022-11-15T05:11:44.671Z,123.18
2022-11-15T05:14:30.654Z,121.40
2022-11-15T05:17:16.308Z,162.23
2022-11-15T05:20:01.857Z,112.93
2022-11-15T05:22:47.502Z,105.65
2022-11-15T05:25:33.114Z,96.57
2022-11-15T05:28:18.715Z,91.05
2022-11-15T05:31:13.360Z,72.95
2022-11-15T05:34:01.298Z,88.47
2022-11-15T05:36:47.395Z,88.57
2022-11-15T05:39:33.010Z,117.53
2022-11-15T05:42:18.561Z,101.95
2022-11-15T05:45:07.445Z,83.95
2022-11-15T05:47:55.953Z,75.70
2022-11-15T05:50:46.329Z,98.60
2022-11-15T05:53:32.988Z,69.05
2022-11-15T05:56:18.763Z,91.50
2022-11-15T05:59:05.385Z,109.45
2022-11-15T06:01:51.344Z,89.97
2022-11-15T06:04:37.091Z,82.10
2022-11-15T06:07:22.666Z,98.18
2022-11-15T06:10:09.787Z,114.45
2022-11-15T06:13:03.800Z,112.07
2022-11-15T06:15:49.369Z,59.75
2022-11-15T06:18:35.699Z,62.80
2022-11-15T06:21:21.481Z,73.32
2022-11-15T06:24:07.836Z,82.47
2022-11-15T06:26:53.684Z,59.53
2022-11-15T06:29:39.935Z,59.67
2022-11-15T06:32:25.785Z,61.17
2022-11-15T06:35:11.569Z,63.85
2022-11-15T06:38:02.663Z,54.60
2022-11-15T06:40:48.146Z,60.07
2022-11-15T06:43:34.227Z,67.07
2022-11-15T06:46:19.825Z,66.10
2022-11-15T06:49:09.541Z,65.82
2022-11-15T06:51:55.536Z,65.45
2022-11-15T06:54:41.342Z,48.55
2022-11-15T06:57:26.604Z,37.38
2022-11-15T07:00:13.412Z,54.90
2022-11-15T07:03:01.381Z,62.72
2022-11-15T07:06:01.415Z,48.47
2022-11-15T07:08:51.107Z,47.22
2022-11-15T07:11:36.802Z,47.28
2022-11-15T07:14:22.527Z,50.03
2022-11-15T07:17:08.299Z,51.88
2022-11-15T07:19:53.897Z,41.72
2022-11-15T07:22:40.087Z,75.40
2022-11-15T07:25:26.338Z,69.82
2022-11-15T07:28:12.521Z,76.70
2022-11-15T07:30:58.681Z,71.60
2022-11-15T07:33:46.451Z,68.28
2022-11-15T07:36:32.929Z,51.63
2022-11-15T07:39:18.500Z,65.20
2022-11-15T07:42:22.711Z,65.95
2022-11-15T07:45:08.962Z,67.43
2022-11-15T07:47:55.013Z,42.63
2022-11-15T07:50:44.256Z,54.67
2022-11-15T07:53:30.232Z,48.47
2022-11-15T07:56:16.321Z,46.22
2022-11-15T07:59:02.253Z,50.58
2022-11-15T08:01:48.062Z,49.55
2022-11-15T08:04:33.823Z,64.15
2022-11-15T08:07:19.703Z,60.72
2022-11-15T08:10:08.317Z,60.78
2022-11-15T08:13:09.584Z,54.53
2022-11-15T08:16:06.631Z,57.00
2022-11-15T08:18:52.553Z,60.05
2022-11-15T08:21:38.566Z,32.13
2022-11-15T08:24:24.070Z,51.80
2022-11-15T08:27:16.086Z,58.35
2022-11-15T08:30:01.867Z,61.55
2022-11-15T08:32:47.667Z,56.28
2022-11-15T08:35:33.133Z,64.70
2022-11-15T08:38:18.558Z,52.80
2022-11-15T08:41:06.199Z,69.78
2022-11-15T08:43:51.574Z,46.92
2022-11-15T08:46:37.013Z,55.42
2022-11-15T08:49:22.569Z,51.85
2022-11-15T08:52:09.624Z,44.30
2022-11-15T08:54:55.255Z,47.97
2022-11-15T08:57:41.049Z,50.03
2022-11-15T09:00:26.556Z,59.75
2022-11-15T09:03:11.952Z,68.22
2022-11-15T09:05:59.112Z,54.45
2022-11-15T09:08:48.630Z,65.28
2022-11-15T09:11:34.466Z,91.47
2022-11-15T09:14:20.053Z,69.80
2022-11-15T09:17:10.243Z,66.22
2022-11-15T09:19:56.482Z,82.03
2022-11-15T09:22:41.875Z,78.20
2022-11-15T09:25:27.981Z,66.15
2022-11-15T09:28:13.532Z,73.70
2022-11-15T09:31:01.056Z,62.22
2022-11-15T09:33:47.446Z,69.43
2022-11-15T09:36:33.388Z,71.38
2022-11-15T09:39:19.022Z,85.80
2022-11-15T09:42:45.477Z,95.15
2022-11-15T09:46:06.757Z,74.75
2022-11-15T09:48:58.808Z,118.50
2022-11-15T09:51:51.365Z,90.38
2022-11-15T09:54:53.295Z,87.25
2022-11-15T09:57:33.791Z,84.20
2022-11-15T10:00:47.085Z,108.57
2022-11-15T10:03:24.728Z,100.35
2022-11-15T10:05:55.453Z,121.95
2022-11-15T10:08:53.257Z,125.20
2022-11-15T10:11:39.740Z,136.25
2022-11-15T10:14:17.493Z,137.10
2022-11-15T10:17:24.222Z,160.95
2022-11-15T10:20:06.239Z,150.82
2022-11-15T10:22:51.252Z,156.45
2022-11-15T10:25:32.217Z,147.45
2022-11-15T10:28:21.533Z,150.43
2022-11-15T10:30:51.259Z,152.88
2022-11-15T10:33:39.915Z,157.73
2022-11-15T10:36:29.842Z,171.02
2022-11-15T10:38:58.528Z,142.32
2022-11-15T10:41:36.482Z,147.50
2022-11-15T10:44:43.512Z,165.40
2022-11-15T10:47:28.985Z,143.25
2022-11-15T10:50:05.711Z,131.80
2022-11-15T10:52:35.674Z,139.30
2022-11-15T10:55:22.950Z,131.05
2022-11-15T10:58:30.647Z,138.27
2022-11-15T11:01:17.601Z,121.35
2022-11-15T11:03:58.315Z,119.90
2022-11-15T11:06:25.634Z,129.70
2022-11-15T11:09:04.303Z,128.63
2022-11-15T11:11:51.587Z,131.85
2022-11-15T11:14:28.547Z,126.00
2022-11-15T11:17:19.481Z,119.53
2022-11-15T11:19:57.042Z,97.53
2022-11-15T11:22:52.566Z,108.55
2022-11-15T11:25:29.936Z,105.20
2022-11-15T11:28:31.985Z,101.65
2022-11-15T11:38:10.235Z,104.95
2022-11-15T11:41:04.189Z,102.10
2022-11-15T11:44:06.892Z,103.45
2022-11-15T11:47:00.475Z,92.50
2022-11-15T11:52:50.707Z,93.07
2022-11-15T11:55:30.327Z,87.85
2022-11-15T12:01:45.363Z,88.78
2022-11-15T12:04:41.877Z,81.88
2022-11-15T12:07:25.686Z,78.03
2022-11-15T12:10:00.602Z,90.68
2022-11-15T12:12:54.385Z,81.82
2022-11-15T12:15:27.278Z,80.75
2022-11-15T12:17:56.795Z,92.88
2022-11-15T12:20:31.436Z,77.63
2022-11-15T12:23:05.083Z,76.80
2022-11-15T12:26:27.757Z,70.90
2022-11-15T12:29:25.070Z,76.90
2022-11-15T12:31:57.657Z,81.00
2022-11-15T12:34:38.215Z,82.95
2022-11-15T12:37:36.104Z,74.75
2022-11-15T12:40:32.797Z,78.78
2022-11-15T12:43:38.409Z,82.13
2022-11-15T12:46:12.637Z,85.80
2022-11-15T12:49:09.231Z,81.05
2022-11-15T12:52:07.232Z,79.50
2022-11-15T12:55:04.519Z,81.28
2022-11-15T12:57:37.402Z,77.35
2022-11-15T13:00:52.133Z,74.65
2022-11-15T13:03:27.885Z,77.15
2022-11-15T13:05:59.389Z,73.93
2022-11-15T13:08:45.068Z,85.35
2022-11-15T13:11:44.458Z,93.00
2022-11-15T13:14:50.248Z,83.47
2022-11-15T13:18:02.610Z,83.45
2022-11-15T13:20:33.753Z,85.22
2022-11-15T13:28:37.915Z,71.35
2022-11-15T13:31:43.383Z,63.95
2022-11-15T13:34:54.985Z,73.05
2022-11-15T13:40:21.123Z,65.45
2022-11-15T13:42:48.366Z,65.75
2022-11-15T13:45:18.885Z,71.13
2022-11-15T13:47:46.044Z,64.07
2022-11-15T13:50:14.673Z,69.95
2022-11-15T13:52:46.914Z,66.97
2022-11-15T13:55:22.847Z,70.18
2022-11-15T13:57:54.095Z,73.30
2022-11-15T14:03:34.215Z,65.32
2022-11-15T14:06:16.435Z,76.05
2022-11-15T14:09:31.347Z,61.20
2022-11-15T14:11:58.815Z,63.85
2022-11-15T14:14:28.219Z,60.38
2022-11-15T14:17:00.486Z,64.60
2022-11-15T14:19:39.059Z,65.03
2022-11-15T14:22:32.155Z,58.10
2022-11-15T14:25:23.630Z,76.57
2022-11-15T14:28:17.399Z,71.80
2022-11-15T14:30:51.346Z,72.10
2022-11-15T14:33:32.483Z,76.20
2022-11-15T14:36:19.885Z,68.07
2022-11-15T14:38:47.789Z,71.68
2022-11-15T14:41:27.439Z,78.75
2022-11-15T14:43:54.673Z,70.50
2022-11-15T14:46:21.669Z,80.03
2022-11-15T14:48:48.830Z,75.40
2022-11-15T14:51:18.526Z,81.38
2022-11-15T14:53:46.898Z,75.55
2022-11-15T14:56:15.181Z,76.00
2022-11-15T14:58:42.345Z,70.32
2022-11-15T15:01:19.256Z,86.05
2022-11-15T15:03:46.789Z,74.43
2022-11-15T15:06:17.982Z,91.40
2022-11-15T15:08:47.239Z,106.90
2022-11-15T15:11:22.919Z,111.05
2022-11-15T15:13:50.093Z,113.72
2022-11-15T15:16:17.203Z,106.75
2022-11-15T15:18:44.759Z,113.07
2022-11-15T15:21:26.192Z,112.85
2022-11-15T15:23:55.186Z,99.57
2022-11-15T15:26:24.006Z,87.10
2022-11-15T15:28:53.115Z,80.47
2022-11-15T15:31:20.348Z,76.35
2022-11-15T15:33:47.608Z,89.95
2022-11-15T15:36:18.253Z,77.57
2022-11-15T15:38:47.945Z,83.90
2022-11-15T15:41:16.906Z,76.78
2022-11-15T15:43:44.385Z,77.55
2022-11-15T15:46:21.189Z,89.72
2022-11-15T15:48:48.480Z,80.32
2022-11-15T15:51:20.160Z,70.03
2022-11-15T15:53:49.499Z,101.80
2022-11-15T15:56:16.623Z,94.53
2022-11-15T15:58:43.695Z,96.82
2022-11-15T16:01:10.906Z,72.55
2022-11-15T16:03:38.290Z,76.40
2022-11-15T16:06:06.370Z,92.93
2022-11-15T16:08:47.439Z,100.15
2022-11-15T16:11:20.542Z,106.57
2022-11-15T16:13:47.453Z,88.72
2022-11-15T16:16:15.115Z,75.97
2022-11-15T16:18:42.918Z,80.25
2022-11-15T16:21:10.074Z,81.53
2022-11-15T16:23:37.188Z,80.75
2022-11-15T16:26:19.177Z,73.93
2022-11-15T16:28:46.154Z,70.03
2022-11-15T16:31:13.849Z,74.00
2022-11-15T16:33:41.412Z,84.95
2022-11-15T16:36:30.262Z,134.77
2022-11-15T16:38:58.807Z,138.63
2022-11-15T16:41:26.531Z,134.25
2022-11-15T16:43:53.757Z,125.70
2022-11-15T16:46:30.247Z,119.22
2022-11-15T16:48:57.825Z,115.88
2022-11-15T16:51:25.209Z,104.60
2022-11-15T16:53:52.387Z,97.72
2022-11-15T16:56:30.599Z,136.32
2022-11-15T16:58:59.250Z,124.28
2022-11-15T17:01:29.215Z,101.85
2022-11-15T17:03:56.500Z,127.95
2022-11-15T17:06:24.944Z,112.90
2022-11-15T17:08:52.341Z,110.63
2022-11-15T17:11:22.020Z,132.75
2022-11-15T17:13:49.888Z,108.95
2022-11-15T17:16:18.547Z,107.43
2022-11-15T17:18:45.940Z,101.30
2022-11-15T17:21:18.139Z,101.38
2022-11-15T17:23:46.143Z,96.32
2022-11-15T17:26:29.501Z,107.38
2022-11-15T17:28:59.411Z,92.20
2022-11-15T17:31:26.584Z,113.20
2022-11-15T17:33:53.705Z,118.63
2022-11-15T17:36:21.235Z,102.47
2022-11-15T17:38:56.568Z,113.93
2022-11-15T17:41:26.627Z,93.68
2022-11-15T17:43:53.704Z,119.82
2022-11-15T17:46:21.693Z,121.70
2022-11-15T17:48:49.454Z,110.45
2022-11-15T17:51:18.160Z,101.20
2022-11-15T17:53:46.994Z,92.53
2022-11-15T17:56:16.645Z,92.38
2022-11-15T17:58:52.827Z,102.93
2022-11-15T18:01:23.287Z,99.82
2022-11-15T18:03:50.768Z,103.03
2022-11-15T18:06:19.376Z,92.93
2022-11-15T18:08:48.155Z,86.85
2022-11-15T18:11:23.316Z,91.18
2022-11-15T18:13:57.177Z,84.78
2022-11-15T18:16:26.571Z,100.38
2022-11-15T18:18:55.278Z,81.68
2022-11-15T18:21:24.500Z,84.18
2022-11-15T18:23:57.002Z,105.15
2022-11-15T18:26:27.890Z,91.57
2022-11-15T18:28:57.568Z,90.43
2022-11-15T18:31:29.463Z,79.15
2022-11-15T18:33:59.795Z,91.32
2022-11-15T18:36:30.696Z,82.60
2022-11-15T18:39:00.794Z,83.97
2022-11-15T18:41:31.112Z,86.97
2022-11-15T18:44:00.075Z,84.97
2022-11-15T18:46:31.074Z,78.72
2022-11-15T18:49:01.068Z,94.22
2022-11-15T18:51:30.982Z,89.72
2022-11-15T18:54:00.673Z,68.93
2022-11-15T18:56:29.669Z,81.20
2022-11-15T18:58:59.380Z,85.35
2022-11-15T19:01:34.077Z,64.10
2022-11-15T19:04:06.010Z,100.63
2022-11-15T19:06:33.447Z,78.85
2022-11-15T19:09:00.815Z,66.47
2022-11-15T19:11:32.824Z,66.60
2022-11-15T19:14:03.338Z,76.57
2022-11-15T19:16:33.542Z,58.63
2022-11-15T19:19:03.645Z,69.20
2022-11-15T19:21:33.909Z,69.05
2022-11-15T19:24:01.788Z,79.22
2022-11-15T19:26:29.763Z,88.28
2022-11-15T19:29:01.830Z,87.80
2022-11-15T19:31:31.758Z,93.78
2022-11-15T19:34:00.605Z,100.13
2022-11-15T19:36:32.592Z,85.82
2022-11-15T19:39:05.289Z,89.20
2022-11-15T19:41:32.454Z,111.72
2022-11-15T19:43:59.621Z,99.82
2022-11-15T19:46:27.107Z,92.57
2022-11-15T19:48:54.712Z,92.93
2022-11-15T19:51:27.077Z,113.40
2022-11-15T19:53:56.728Z,115.65
2022-11-15T19:56:24.149Z,163.80
2022-11-15T19:58:53.059Z,169.55
2022-11-15T20:01:29.018Z,144.77
2022-11-15T20:03:59.074Z,107.75
2022-11-15T20:06:34.509Z,113.70
2022-11-15T20:09:01.591Z,107.50
2022-11-15T20:11:28.720Z,106.25
2022-11-15T20:14:00.797Z,109.57
2022-11-15T20:16:28.148Z,99.45
2022-11-15T20:18:55.129Z,91.35
2022-11-15T20:21:22.294Z,99.00
2022-11-15T20:23:51.175Z,94.38
2022-11-15T20:26:20.090Z,87.05
2022-11-15T20:28:48.375Z,84.15
2022-11-15T20:31:16.609Z,98.68
2022-11-15T20:33:43.819Z,85.03
2022-11-15T20:36:13.540Z,83.88
2022-11-15T20:38:40.908Z,84.80
2022-11-15T20:41:08.233Z,67.35
2022-11-15T20:43:35.367Z,77.32
2022-11-15T20:46:02.270Z,81.90
2022-11-15T20:48:29.420Z,72.25
2022-11-15T20:51:25.973Z,76.57
2022-11-15T20:53:53.071Z,74.28
2022-11-15T20:56:22.003Z,70.70
2022-11-15T20:58:50.796Z,79.00
2022-11-15T21:01:23.804Z,75.80
2022-11-15T21:03:57.646Z,65.63
2022-11-15T21:06:26.845Z,71.47
2022-11-15T21:09:13.285Z,70.32
2022-11-15T21:11:59.773Z,78.00
2022-11-15T21:14:27.020Z,70.20
2022-11-15T21:16:54.081Z,78.47
2022-11-15T21:19:27.287Z,75.25
2022-11-15T21:21:58.531Z,79.47
2022-11-15T21:24:25.620Z,76.22
2022-11-15T21:26:53.373Z,78.78
2022-11-15T21:29:20.591Z,91.15
2022-11-15T21:31:48.977Z,74.13
2022-11-15T21:34:17.487Z,81.13
2022-11-15T21:36:44.503Z,89.00
2022-11-15T21:39:11.861Z,73.00
2022-11-15T21:41:38.995Z,74.72
2022-11-15T21:44:06.083Z,73.18
2022-11-15T21:46:33.593Z,79.18
2022-11-15T21:49:00.700Z,81.28
2022-11-15T21:51:27.898Z,75.07
2022-11-15T21:53:56.379Z,89.32
2022-11-15T21:56:24.170Z,89.10
2022-11-15T21:58:51.335Z,85.63
2022-11-15T22:01:37.468Z,70.30
2022-11-15T22:04:06.600Z,73.63
2022-11-15T22:06:34.594Z,77.70
2022-11-15T22:09:02.315Z,78.82
2022-11-15T22:11:29.872Z,98.10
2022-11-15T22:13:57.073Z,92.57
2022-11-15T22:16:24.372Z,85.47
2022-11-15T22:18:51.512Z,95.63
2022-11-15T22:21:19.285Z,89.40
2022-11-15T22:23:46.604Z,89.03
2022-11-15T22:26:19.396Z,88.75
2022-11-15T22:28:49.186Z,99.75
2022-11-15T22:31:16.235Z,95.85
2022-11-15T22:33:43.313Z,91.10
2022-11-15T22:36:12.067Z,83.93
2022-11-15T22:38:39.526Z,80.43
2022-11-15T22:41:06.870Z,75.97
2022-11-15T22:43:34.472Z,68.57
2022-11-15T22:46:02.877Z,74.97
2022-11-15T22:48:35.745Z,75.97
2022-11-15T22:51:04.075Z,65.78
2022-11-15T22:53:31.336Z,57.92
2022-11-15T22:56:01.006Z,57.72
2022-11-15T22:58:30.425Z,55.22
2022-11-15T23:01:02.695Z,55.15
2022-11-15T23:03:31.522Z,53.72
2022-11-15T23:06:06.472Z,52.28
2022-11-15T23:08:33.859Z,72.20
2022-11-15T23:11:20.812Z,66.28
2022-11-15T23:13:51.757Z,63.42
2022-11-15T23:16:23.662Z,51.33
2022-11-15T23:18:56.576Z,66.85
2022-11-15T23:21:53.920Z,61.22
2022-11-15T23:24:21.683Z,51.83
2022-11-15T23:26:51.349Z,45.15
2022-11-15T23:29:20.625Z,48.28
2022-11-15T23:32:06.294Z,41.25
2022-11-15T23:34:36.449Z,48.75
2022-11-15T23:37:05.173Z,55.05
2022-11-15T23:39:32.629Z,52.78
2022-11-15T23:42:02.104Z,58.40
2022-11-15T23:44:33.157Z,47.20
2022-11-15T23:47:00.174Z,56.10
2022-11-15T23:49:27.412Z,55.00
2022-11-15T23:51:54.527Z,48.83
2022-11-15T23:54:21.599Z,52.30
2022-11-15T23:56:48.637Z,49.65
2022-11-15T23:59:15.855Z,47.85
